sensor_id;sensor_type;location;lat;lon;timestamp;pressure;altitude;pressure_sealevel;temperature;humidity
50484;BME280;36409;52.168;20.878;2023-07-08T00:01:19;101104.58;;;13.83;52.93
50484;BME280;36409;52.168;20.878;2023-07-08T00:03:52;101098.52;;;13.78;52.79
50484;BME280;36409;52.168;20.878;2023-07-08T00:06:24;101104.73;;;13.73;53.18
50484;BME280;36409;52.168;20.878;2023-07-08T00:08:55;101110.02;;;13.70;53.82
50484;BME280;36409;52.168;20.878;2023-07-08T00:11:24;101112.67;;;13.67;53.18
50484;BME280;36409;52.168;20.878;2023-07-08T00:13:55;101106.66;;;13.62;53.14
50484;BME280;36409;52.168;20.878;2023-07-08T00:16:25;101110.20;;;13.58;53.57
50484;BME280;36409;52.168;20.878;2023-07-08T00:18:57;101109.38;;;13.54;54.47
50484;BME280;36409;52.168;20.878;2023-07-08T00:21:27;101106.77;;;13.53;53.72
50484;BME280;36409;52.168;20.878;2023-07-08T00:23:57;101105.09;;;13.47;54.36
50484;BME280;36409;52.168;20.878;2023-07-08T00:26:29;101112.14;;;13.45;53.70
50484;BME280;36409;52.168;20.878;2023-07-08T00:29:01;101105.20;;;13.41;53.64
50484;BME280;36409;52.168;20.878;2023-07-08T00:31:30;101110.48;;;13.39;53.82
50484;BME280;36409;52.168;20.878;2023-07-08T00:34:00;101112.22;;;13.37;54.11
50484;BME280;36409;52.168;20.878;2023-07-08T00:36:34;101116.61;;;13.35;54.13
50484;BME280;36409;52.168;20.878;2023-07-08T00:39:13;101112.25;;;13.34;54.87
50484;BME280;36409;52.168;20.878;2023-07-08T00:41:45;101120.11;;;13.34;55.11
50484;BME280;36409;52.168;20.878;2023-07-08T00:44:15;101112.28;;;13.33;54.59
50484;BME280;36409;52.168;20.878;2023-07-08T00:46:53;101120.18;;;13.29;54.44
50484;BME280;36409;52.168;20.878;2023-07-08T00:49:34;101116.73;;;13.26;55.49
50484;BME280;36409;52.168;20.878;2023-07-08T00:52:19;101115.00;;;13.23;54.97
50484;BME280;36409;52.168;20.878;2023-07-08T00:54:51;101108.94;;;13.20;54.84
50484;BME280;36409;52.168;20.878;2023-07-08T00:57:22;101110.70;;;13.18;55.70
50484;BME280;36409;52.168;20.878;2023-07-08T00:59:56;101107.30;;;13.12;55.17
50484;BME280;36409;52.168;20.878;2023-07-08T01:02:28;101108.24;;;13.07;55.85
50484;BME280;36409;52.168;20.878;2023-07-08T01:05:04;101115.31;;;13.00;55.05
50484;BME280;36409;52.168;20.878;2023-07-08T01:07:35;101126.70;;;12.97;55.62
50484;BME280;36409;52.168;20.878;2023-07-08T01:10:09;101126.80;;;12.90;55.22
50484;BME280;36409;52.168;20.878;2023-07-08T01:12:44;101132.11;;;12.82;55.64
50484;BME280;36409;52.168;20.878;2023-07-08T01:15:15;101119.92;;;12.78;56.49
50484;BME280;36409;52.168;20.878;2023-07-08T01:17:44;101119.92;;;12.78;55.94
50484;BME280;36409;52.168;20.878;2023-07-08T01:20:14;101112.95;;;12.78;56.14
50484;BME280;36409;52.168;20.878;2023-07-08T01:22:43;101119.08;;;12.77;56.12
50484;BME280;36409;52.168;20.878;2023-07-08T01:25:15;101116.48;;;12.74;56.60
50484;BME280;36409;52.168;20.878;2023-07-08T01:27:48;101107.77;;;12.72;56.29
50484;BME280;36409;52.168;20.878;2023-07-08T01:30:18;101113.03;;;12.71;56.72
50484;BME280;36409;52.168;20.878;2023-07-08T01:32:49;101106.06;;;12.70;57.21
50484;BME280;36409;52.168;20.878;2023-07-08T01:35:21;101108.73;;;12.66;57.08
50484;BME280;36409;52.168;20.878;2023-07-08T01:37:54;101112.23;;;12.64;57.25
50484;BME280;36409;52.168;20.878;2023-07-08T01:40:28;101104.43;;;12.61;56.94
50484;BME280;36409;52.168;20.878;2023-07-08T01:42:59;101118.41;;;12.60;57.47
50484;BME280;36409;52.168;20.878;2023-07-08T01:45:31;101113.16;;;12.58;56.61
50484;BME280;36409;52.168;20.878;2023-07-08T01:48:07;101117.55;;;12.56;57.29
50484;BME280;36409;52.168;20.878;2023-07-08T01:50:40;101114.09;;;12.53;57.88
50484;BME280;36409;52.168;20.878;2023-07-08T01:53:15;101117.63;;;12.50;57.77
50484;BME280;36409;52.168;20.878;2023-07-08T01:55:45;101109.81;;;12.45;57.70
50484;BME280;36409;52.168;20.878;2023-07-08T01:58:14;101110.72;;;12.41;57.46
50484;BME280;36409;52.168;20.878;2023-07-08T02:00:44;101109.86;;;12.39;57.33
50484;BME280;36409;52.168;20.878;2023-07-08T02:03:19;101105.54;;;12.38;58.28
50484;BME280;36409;52.168;20.878;2023-07-08T02:05:49;101107.27;;;12.38;58.50
50484;BME280;36409;52.168;20.878;2023-07-08T02:08:18;101102.92;;;12.38;57.47
50484;BME280;36409;52.168;20.878;2023-07-08T02:10:50;101090.71;;;12.37;58.03
50484;BME280;36409;52.168;20.878;2023-07-08T02:13:19;101090.70;;;12.35;58.41
50484;BME280;36409;52.168;20.878;2023-07-08T02:15:49;101090.73;;;12.34;58.10
50484;BME280;36409;52.168;20.878;2023-07-08T02:18:20;101095.09;;;12.33;58.27
50484;BME280;36409;52.168;20.878;2023-07-08T02:20:54;101098.61;;;12.32;57.75
50484;BME280;36409;52.168;20.878;2023-07-08T02:23:25;101094.25;;;12.30;58.30
50484;BME280;36409;52.168;20.878;2023-07-08T02:26:00;101097.80;;;12.26;58.11
50484;BME280;36409;52.168;20.878;2023-07-08T02:28:29;101099.56;;;12.24;57.99
50484;BME280;36409;52.168;20.878;2023-07-08T02:31:02;101096.06;;;12.23;58.42
50484;BME280;36409;52.168;20.878;2023-07-08T02:33:32;101091.70;;;12.22;58.56
50484;BME280;36409;52.168;20.878;2023-07-08T02:36:02;101088.23;;;12.22;58.99
50484;BME280;36409;52.168;20.878;2023-07-08T02:38:33;101091.73;;;12.20;58.87
50484;BME280;36409;52.168;20.878;2023-07-08T02:41:02;101090.00;;;12.21;58.86
50484;BME280;36409;52.168;20.878;2023-07-08T02:43:33;101085.64;;;12.18;58.35
50484;BME280;36409;52.168;20.878;2023-07-08T02:46:01;101083.07;;;12.15;58.74
50484;BME280;36409;52.168;20.878;2023-07-08T02:48:32;101086.56;;;12.14;59.57
50484;BME280;36409;52.168;20.878;2023-07-08T02:51:01;101076.98;;;12.13;59.03
50484;BME280;36409;52.168;20.878;2023-07-08T02:53:32;101087.44;;;12.12;59.09
50484;BME280;36409;52.168;20.878;2023-07-08T02:56:01;101095.29;;;12.12;58.95
50484;BME280;36409;52.168;20.878;2023-07-08T02:58:30;101103.16;;;12.10;59.26
50484;BME280;36409;52.168;20.878;2023-07-08T03:00:59;101100.55;;;12.10;59.23
50484;BME280;36409;52.168;20.878;2023-07-08T03:03:29;101106.64;;;12.11;59.08
50484;BME280;36409;52.168;20.878;2023-07-08T03:06:01;101102.27;;;12.13;59.07
50484;BME280;36409;52.168;20.878;2023-07-08T03:08:33;101097.91;;;12.13;60.01
50484;BME280;36409;52.168;20.878;2023-07-08T03:11:05;101104.89;;;12.14;59.57
50484;BME280;36409;52.168;20.878;2023-07-08T03:13:35;101108.33;;;12.16;59.47
50484;BME280;36409;52.168;20.878;2023-07-08T03:16:06;101105.70;;;12.19;60.09
50484;BME280;36409;52.168;20.878;2023-07-08T03:18:40;101107.41;;;12.24;60.10
50484;BME280;36409;52.168;20.878;2023-07-08T03:21:17;101096.06;;;12.25;59.88
50484;BME280;36409;52.168;20.878;2023-07-08T03:23:47;101109.11;;;12.29;60.58
50484;BME280;36409;52.168;20.878;2023-07-08T03:26:19;101104.63;;;12.39;60.47
50484;BME280;36409;52.168;20.878;2023-07-08T03:28:51;101111.37;;;12.62;59.65
50484;BME280;36409;52.168;20.878;2023-07-08T03:31:21;101112.17;;;12.69;60.07
50484;BME280;36409;52.168;20.878;2023-07-08T03:33:51;101113.89;;;12.73;59.65
50484;BME280;36409;52.168;20.878;2023-07-08T03:36:21;101107.73;;;12.75;59.58
50484;BME280;36409;52.168;20.878;2023-07-08T03:38:56;101108.63;;;12.74;59.96
50484;BME280;36409;52.168;20.878;2023-07-08T03:41:25;101113.86;;;12.76;60.67
50484;BME280;36409;52.168;20.878;2023-07-08T03:43:56;101109.45;;;12.78;60.09
50484;BME280;36409;52.168;20.878;2023-07-08T03:46:25;101113.81;;;12.80;60.69
50484;BME280;36409;52.168;20.878;2023-07-08T03:48:55;101109.42;;;12.82;60.60
50484;BME280;36409;52.168;20.878;2023-07-08T03:51:26;101111.10;;;12.87;60.03
50484;BME280;36409;52.168;20.878;2023-07-08T03:53:56;101111.90;;;12.93;59.97
50484;BME280;36409;52.168;20.878;2023-07-08T03:56:26;101113.58;;;12.99;60.04
50484;BME280;36409;52.168;20.878;2023-07-08T03:58:56;101115.22;;;13.06;60.85
50484;BME280;36409;52.168;20.878;2023-07-08T04:01:28;101108.12;;;13.16;60.53
50484;BME280;36409;52.168;20.878;2023-07-08T04:03:59;101111.49;;;13.24;59.94
50484;BME280;36409;52.168;20.878;2023-07-08T04:06:31;101112.25;;;13.34;60.47
50484;BME280;36409;52.168;20.878;2023-07-08T04:09:02;101112.14;;;13.43;60.17
50484;BME280;36409;52.168;20.878;2023-07-08T04:11:32;101104.98;;;13.56;60.79
50484;BME280;36409;52.168;20.878;2023-07-08T04:14:01;101101.52;;;14.09;60.79
50484;BME280;36409;52.168;20.878;2023-07-08T04:16:43;101090.98;;;15.82;59.29
50484;BME280;36409;52.168;20.878;2023-07-08T04:19:14;101090.29;;;17.64;58.91
50484;BME280;36409;52.168;20.878;2023-07-08T04:21:44;101085.69;;;19.21;58.81
50484;BME280;36409;52.168;20.878;2023-07-08T04:24:16;101089.09;;;20.12;58.33
50484;BME280;36409;52.168;20.878;2023-07-08T04:26:47;101084.19;;;20.24;57.68
50484;BME280;36409;52.168;20.878;2023-07-08T04:29:19;101092.84;;;19.86;56.27
50484;BME280;36409;52.168;20.878;2023-07-08T04:31:48;101086.87;;;19.58;55.98
50484;BME280;36409;52.168;20.878;2023-07-08T04:34:17;101094.61;;;19.19;55.75
50484;BME280;36409;52.168;20.878;2023-07-08T04:36:46;101086.20;;;18.83;55.38
50484;BME280;36409;52.168;20.878;2023-07-08T04:39:15;101089.84;;;18.56;54.94
50484;BME280;36409;52.168;20.878;2023-07-08T04:41:47;101086.21;;;18.34;54.97
50484;BME280;36409;52.168;20.878;2023-07-08T04:44:16;101083.77;;;18.77;54.39
50484;BME280;36409;52.168;20.878;2023-07-08T04:46:47;101084.94;;;19.40;54.76
50484;BME280;36409;52.168;20.878;2023-07-08T04:49:19;101078.48;;;19.92;54.40
50484;BME280;36409;52.168;20.878;2023-07-08T04:51:50;101077.54;;;22.04;53.12
50484;BME280;36409;52.168;20.878;2023-07-08T04:54:20;101075.84;;;24.13;52.02
50484;BME280;36409;52.168;20.878;2023-07-08T04:56:50;101069.61;;;26.09;51.17
50484;BME280;36409;52.168;20.878;2023-07-08T04:59:23;101071.01;;;27.89;49.48
50484;BME280;36409;52.168;20.878;2023-07-08T05:01:52;101075.06;;;29.32;48.15
50484;BME280;36409;52.168;20.878;2023-07-08T05:04:22;101074.68;;;30.54;46.21
50484;BME280;36409;52.168;20.878;2023-07-08T05:06:51;101071.79;;;31.47;44.03
50484;BME280;36409;52.168;20.878;2023-07-08T05:09:21;101080.98;;;32.03;42.74
50484;BME280;36409;52.168;20.878;2023-07-08T05:11:54;101081.98;;;32.87;41.56
50484;BME280;36409;52.168;20.878;2023-07-08T05:14:22;101073.06;;;33.95;40.16
50484;BME280;36409;52.168;20.878;2023-07-08T05:16:52;101072.58;;;35.04;38.67
50484;BME280;36409;52.168;20.878;2023-07-08T05:19:21;101072.15;;;35.66;37.40
50484;BME280;36409;52.168;20.878;2023-07-08T05:21:51;101075.44;;;36.35;36.42
50484;BME280;36409;52.168;20.878;2023-07-08T05:24:22;101069.61;;;36.94;34.83
50484;BME280;36409;52.168;20.878;2023-07-08T05:26:51;101071.36;;;37.42;34.23
50484;BME280;36409;52.168;20.878;2023-07-08T05:29:21;101069.73;;;38.09;33.22
50484;BME280;36409;52.168;20.878;2023-07-08T05:31:50;101064.70;;;38.87;32.39
50484;BME280;36409;52.168;20.878;2023-07-08T05:34:19;101063.03;;;39.08;31.14
50484;BME280;36409;52.168;20.878;2023-07-08T05:36:47;101067.13;;;39.62;30.48
50484;BME280;36409;52.168;20.878;2023-07-08T05:39:16;101068.09;;;39.76;29.45
50484;BME280;36409;52.168;20.878;2023-07-08T05:41:45;101060.67;;;40.27;29.01
50484;BME280;36409;52.168;20.878;2023-07-08T05:44:14;101070.41;;;40.91;28.47
50484;BME280;36409;52.168;20.878;2023-07-08T05:46:47;101060.82;;;41.49;27.91
50484;BME280;36409;52.168;20.878;2023-07-08T05:49:16;101063.52;;;42.10;27.26
50484;BME280;36409;52.168;20.878;2023-07-08T05:51:46;101056.88;;;42.44;25.89
50484;BME280;36409;52.168;20.878;2023-07-08T05:54:15;101062.44;;;42.70;25.48
50484;BME280;36409;52.168;20.878;2023-07-08T05:56:44;101063.95;;;42.66;24.86
50484;BME280;36409;52.168;20.878;2023-07-08T05:59:13;101062.84;;;42.73;24.42
50484;BME280;36409;52.168;20.878;2023-07-08T06:01:42;101051.82;;;42.87;23.64
50484;BME280;36409;52.168;20.878;2023-07-08T06:04:11;101060.06;;;43.19;23.61
50484;BME280;36409;52.168;20.878;2023-07-08T06:06:41;101060.54;;;43.66;23.02
50484;BME280;36409;52.168;20.878;2023-07-08T06:09:10;101055.53;;;43.82;22.77
50484;BME280;36409;52.168;20.878;2023-07-08T06:11:39;101062.44;;;44.47;22.36
50484;BME280;36409;52.168;20.878;2023-07-08T06:14:08;101051.44;;;44.78;21.33
50484;BME280;36409;52.168;20.878;2023-07-08T06:16:37;101055.91;;;44.60;21.14
50484;BME280;36409;52.168;20.878;2023-07-08T06:19:10;101053.25;;;44.35;20.80
50484;BME280;36409;52.168;20.878;2023-07-08T06:21:41;101055.49;;;44.07;20.78
50484;BME280;36409;52.168;20.878;2023-07-08T06:24:10;101042.68;;;43.00;20.85
50484;BME280;36409;52.168;20.878;2023-07-08T06:26:42;101055.95;;;41.11;21.64
50484;BME280;36409;52.168;20.878;2023-07-08T06:29:10;101050.19;;;39.02;22.62
50484;BME280;36409;52.168;20.878;2023-07-08T06:31:39;101055.73;;;37.12;23.34
50484;BME280;36409;52.168;20.878;2023-07-08T06:34:09;101045.54;;;35.53;23.86
50484;BME280;36409;52.168;20.878;2023-07-08T06:36:40;101047.98;;;34.19;24.35
50484;BME280;36409;52.168;20.878;2023-07-08T06:39:09;101047.17;;;33.02;25.00
50484;BME280;36409;52.168;20.878;2023-07-08T06:41:39;101052.11;;;32.13;25.40
50484;BME280;36409;52.168;20.878;2023-07-08T06:44:08;101048.59;;;31.05;25.85
50484;BME280;36409;52.168;20.878;2023-07-08T06:46:38;101054.80;;;30.24;26.54
50484;BME280;36409;52.168;20.878;2023-07-08T06:49:06;101048.91;;;29.66;26.92
50484;BME280;36409;52.168;20.878;2023-07-08T06:51:37;101048.57;;;29.27;27.54
50484;BME280;36409;52.168;20.878;2023-07-08T06:54:07;101053.03;;;28.94;28.06
50484;BME280;36409;52.168;20.878;2023-07-08T06:56:40;101047.06;;;28.56;28.31
50484;BME280;36409;52.168;20.878;2023-07-08T06:59:10;101039.65;;;28.26;28.55
50484;BME280;36409;52.168;20.878;2023-07-08T07:01:39;101039.82;;;28.00;28.93
50484;BME280;36409;52.168;20.878;2023-07-08T07:04:08;101033.41;;;27.67;29.11
50484;BME280;36409;52.168;20.878;2023-07-08T07:06:37;101036.05;;;27.55;29.48
50484;BME280;36409;52.168;20.878;2023-07-08T07:09:31;101035.80;;;27.58;29.33
50484;BME280;36409;52.168;20.878;2023-07-08T07:12:12;101027.84;;;27.93;29.40
50484;BME280;36409;52.168;20.878;2023-07-08T07:14:42;101031.23;;;28.30;29.40
50484;BME280;36409;52.168;20.878;2023-07-08T07:17:14;101032.80;;;28.56;29.29
50484;BME280;36409;52.168;20.878;2023-07-08T07:19:44;101026.84;;;28.52;29.47
50484;BME280;36409;52.168;20.878;2023-07-08T07:22:14;101037.06;;;28.24;28.74
50484;BME280;36409;52.168;20.878;2023-07-08T07:24:44;101031.64;;;28.01;29.52
50484;BME280;36409;52.168;20.878;2023-07-08T07:27:15;101027.56;;;27.73;29.23
50484;BME280;36409;52.168;20.878;2023-07-08T07:29:46;101016.28;;;27.45;29.46
50484;BME280;36409;52.168;20.878;2023-07-08T07:32:17;101026.87;;;27.22;29.77
50484;BME280;36409;52.168;20.878;2023-07-08T07:34:47;101023.16;;;27.12;30.10
50484;BME280;36409;52.168;20.878;2023-07-08T07:37:18;101020.92;;;27.06;29.87
50484;BME280;36409;52.168;20.878;2023-07-08T07:39:47;101025.78;;;27.01;29.92
50484;BME280;36409;52.168;20.878;2023-07-08T07:42:18;101024.28;;;26.96;30.15
50484;BME280;36409;52.168;20.878;2023-07-08T07:44:47;101023.32;;;26.97;30.56
50484;BME280;36409;52.168;20.878;2023-07-08T07:47:19;101021.39;;;27.00;30.60
50484;BME280;36409;52.168;20.878;2023-07-08T07:49:51;101021.08;;;26.91;30.15
50484;BME280;36409;52.168;20.878;2023-07-08T07:52:24;101026.89;;;26.85;30.49
50484;BME280;36409;52.168;20.878;2023-07-08T07:54:55;101028.48;;;26.88;30.58
50484;BME280;36409;52.168;20.878;2023-07-08T07:57:25;101025.80;;;26.88;30.42
50484;BME280;36409;52.168;20.878;2023-07-08T07:59:54;101027.18;;;26.93;30.39
50484;BME280;36409;52.168;20.878;2023-07-08T08:02:23;101019.14;;;26.93;30.50
50484;BME280;36409;52.168;20.878;2023-07-08T08:04:52;101020.86;;;26.94;30.63
50484;BME280;36409;52.168;20.878;2023-07-08T08:07:21;101012.95;;;26.93;30.40
50484;BME280;36409;52.168;20.878;2023-07-08T08:09:50;101020.11;;;26.92;30.45
50484;BME280;36409;52.168;20.878;2023-07-08T08:12:19;101018.18;;;26.94;30.62
50484;BME280;36409;52.168;20.878;2023-07-08T08:14:50;101005.88;;;26.92;30.70
50484;BME280;36409;52.168;20.878;2023-07-08T08:17:19;101009.18;;;26.95;30.63
50484;BME280;36409;52.168;20.878;2023-07-08T08:19:48;101020.17;;;27.04;30.78
50484;BME280;36409;52.168;20.878;2023-07-08T08:22:17;101013.52;;;27.09;30.77
50484;BME280;36409;52.168;20.878;2023-07-08T08:24:46;101020.36;;;27.13;31.04
50484;BME280;36409;52.168;20.878;2023-07-08T08:27:17;101023.66;;;27.17;30.82
50484;BME280;36409;52.168;20.878;2023-07-08T08:29:46;101026.34;;;27.17;31.02
50484;BME280;36409;52.168;20.878;2023-07-08T08:32:15;101028.18;;;27.17;31.05
50484;BME280;36409;52.168;20.878;2023-07-08T08:34:44;101031.35;;;27.22;30.87
50484;BME280;36409;52.168;20.878;2023-07-08T08:37:13;101024.19;;;27.22;30.67
50484;BME280;36409;52.168;20.878;2023-07-08T08:39:42;101035.52;;;27.26;30.86
50484;BME280;36409;52.168;20.878;2023-07-08T08:42:18;101020.69;;;27.33;30.94
50484;BME280;36409;52.168;20.878;2023-07-08T08:44:50;101030.09;;;27.39;30.49
50484;BME280;36409;52.168;20.878;2023-07-08T08:47:27;101018.83;;;27.47;30.93
50484;BME280;36409;52.168;20.878;2023-07-08T08:50:08;101012.31;;;27.62;30.77
50484;BME280;36409;52.168;20.878;2023-07-08T08:52:42;101017.02;;;27.94;30.68
50484;BME280;36409;52.168;20.878;2023-07-08T08:55:13;101016.70;;;28.33;30.63
50484;BME280;36409;52.168;20.878;2023-07-08T08:57:48;101016.09;;;28.63;30.29
50484;BME280;36409;52.168;20.878;2023-07-08T09:00:24;101018.88;;;28.85;29.94
50484;BME280;36409;52.168;20.878;2023-07-08T09:03:01;101012.31;;;29.21;29.99
50484;BME280;36409;52.168;20.878;2023-07-08T09:05:31;101014.41;;;29.50;29.81
50484;BME280;36409;52.168;20.878;2023-07-08T09:08:05;101021.88;;;29.89;29.54
50484;BME280;36409;52.168;20.878;2023-07-08T09:10:45;101009.45;;;30.19;29.59
50484;BME280;36409;52.168;20.878;2023-07-08T09:13:21;101020.68;;;30.55;29.30
50484;BME280;36409;52.168;20.878;2023-07-08T09:15:57;101018.52;;;30.90;29.03
50484;BME280;36409;52.168;20.878;2023-07-08T09:18:32;101024.67;;;31.31;29.13
50484;BME280;36409;52.168;20.878;2023-07-08T09:21:12;101019.25;;;31.70;29.11
50484;BME280;36409;52.168;20.878;2023-07-08T09:23:46;101017.04;;;32.03;28.85
50484;BME280;36409;52.168;20.878;2023-07-08T09:26:19;101012.81;;;32.39;28.59
50484;BME280;36409;52.168;20.878;2023-07-08T09:28:51;101015.89;;;32.54;28.35
50484;BME280;36409;52.168;20.878;2023-07-08T09:31:25;101018.38;;;32.93;28.28
50484;BME280;36409;52.168;20.878;2023-07-08T09:34:06;101014.98;;;33.27;27.94
50484;BME280;36409;52.168;20.878;2023-07-08T09:36:40;101017.84;;;33.25;27.60
50484;BME280;36409;52.168;20.878;2023-07-08T09:39:19;101013.57;;;33.05;27.51
50484;BME280;36409;52.168;20.878;2023-07-08T09:41:52;101005.69;;;32.93;27.45
50484;BME280;36409;52.168;20.878;2023-07-08T09:44:25;101003.27;;;32.72;27.33
50484;BME280;36409;52.168;20.878;2023-07-08T09:46:58;100999.37;;;32.85;27.20
50484;BME280;36409;52.168;20.878;2023-07-08T09:49:30;101004.62;;;33.04;26.72
50484;BME280;36409;52.168;20.878;2023-07-08T09:52:00;100992.19;;;33.11;26.48
50484;BME280;36409;52.168;20.878;2023-07-08T09:54:29;100999.45;;;33.29;26.64
50484;BME280;36409;52.168;20.878;2023-07-08T09:57:02;101002.64;;;33.43;26.48
50484;BME280;36409;52.168;20.878;2023-07-08T09:59:33;100995.30;;;33.35;26.22
50484;BME280;36409;52.168;20.878;2023-07-08T10:02:24;100997.14;;;32.80;26.12
50484;BME280;36409;52.168;20.878;2023-07-08T10:04:55;100998.93;;;32.24;26.30
50484;BME280;36409;52.168;20.878;2023-07-08T10:07:29;101004.14;;;31.97;26.58
50484;BME280;36409;52.168;20.878;2023-07-08T10:10:02;101000.09;;;31.64;26.25
50484;BME280;36409;52.168;20.878;2023-07-08T10:12:34;100998.12;;;31.46;26.45
50484;BME280;36409;52.168;20.878;2023-07-08T10:15:16;100991.02;;;31.45;26.41
50484;BME280;36409;52.168;20.878;2023-07-08T10:17:48;101004.78;;;31.62;26.63
50484;BME280;36409;52.168;20.878;2023-07-08T10:20:19;100995.77;;;32.00;26.69
50484;BME280;36409;52.168;20.878;2023-07-08T10:22:56;100997.53;;;32.57;26.92
50484;BME280;36409;52.168;20.878;2023-07-08T10:25:31;100986.64;;;32.95;26.39
50484;BME280;36409;52.168;20.878;2023-07-08T10:28:24;100979.37;;;33.14;26.13
50484;BME280;36409;52.168;20.878;2023-07-08T10:31:07;100987.01;;;33.18;26.24
50484;BME280;36409;52.168;20.878;2023-07-08T10:36:43;100976.06;;;33.20;25.84
50484;BME280;36409;52.168;20.878;2023-07-08T10:42:17;100977.92;;;33.64;25.69
50484;BME280;36409;52.168;20.878;2023-07-08T10:45:07;100972.69;;;33.62;25.55
50484;BME280;36409;52.168;20.878;2023-07-08T10:47:54;100974.12;;;33.75;25.55
50484;BME280;36409;52.168;20.878;2023-07-08T10:50:46;100971.87;;;33.88;25.16
50484;BME280;36409;52.168;20.878;2023-07-08T10:53:41;100971.45;;;33.83;24.96
50484;BME280;36409;52.168;20.878;2023-07-08T10:56:18;100972.63;;;34.07;24.82
50484;BME280;36409;52.168;20.878;2023-07-08T10:59:10;100955.97;;;34.28;24.93
50484;BME280;36409;52.168;20.878;2023-07-08T11:01:58;100967.95;;;34.60;24.78
50484;BME280;36409;52.168;20.878;2023-07-08T11:04:41;100952.89;;;34.66;24.69
50484;BME280;36409;52.168;20.878;2023-07-08T11:07:29;100964.92;;;34.79;24.54
50484;BME280;36409;52.168;20.878;2023-07-08T11:10:02;100952.53;;;34.69;24.33
50484;BME280;36409;52.168;20.878;2023-07-08T11:12:36;100952.70;;;34.67;24.50
50484;BME280;36409;52.168;20.878;2023-07-08T11:15:12;100949.35;;;34.73;24.48
50484;BME280;36409;52.168;20.878;2023-07-08T11:17:48;100945.95;;;34.79;24.28
50484;BME280;36409;52.168;20.878;2023-07-08T11:20:21;100931.24;;;34.90;24.28
50484;BME280;36409;52.168;20.878;2023-07-08T11:22:54;100942.28;;;35.14;24.17
50484;BME280;36409;52.168;20.878;2023-07-08T11:25:28;100931.75;;;35.35;24.00
50484;BME280;36409;52.168;20.878;2023-07-08T11:28:01;100936.98;;;35.37;23.86
50484;BME280;36409;52.168;20.878;2023-07-08T11:30:33;100927.20;;;35.11;23.57
50484;BME280;36409;52.168;20.878;2023-07-08T11:33:08;100935.95;;;34.80;23.72
50484;BME280;36409;52.168;20.878;2023-07-08T11:35:42;100937.18;;;34.34;23.64
50484;BME280;36409;52.168;20.878;2023-07-08T11:38:14;100930.86;;;33.83;23.93
50484;BME280;36409;52.168;20.878;2023-07-08T11:40:53;100930.77;;;33.40;23.81
50484;BME280;36409;52.168;20.878;2023-07-08T11:43:24;100938.80;;;32.77;23.76
50484;BME280;36409;52.168;20.878;2023-07-08T11:45:56;100935.37;;;32.39;24.01
50484;BME280;36409;52.168;20.878;2023-07-08T11:48:29;100940.23;;;32.36;24.41
50484;BME280;36409;52.168;20.878;2023-07-08T11:51:05;100935.08;;;32.60;24.67
50484;BME280;36409;52.168;20.878;2023-07-08T11:53:46;100936.52;;;33.01;24.79
50484;BME280;36409;52.168;20.878;2023-07-08T11:56:24;100932.48;;;33.05;24.73
50484;BME280;36409;52.168;20.878;2023-07-08T11:59:13;100937.28;;;33.11;24.70
50484;BME280;36409;52.168;20.878;2023-07-08T12:01:51;100935.64;;;33.36;24.75
50484;BME280;36409;52.168;20.878;2023-07-08T12:04:29;100925.83;;;33.35;24.69
50484;BME280;36409;52.168;20.878;2023-07-08T12:07:10;100927.25;;;33.03;24.64
50484;BME280;36409;52.168;20.878;2023-07-08T12:09:45;100920.34;;;32.73;24.57
50484;BME280;36409;52.168;20.878;2023-07-08T12:12:27;100925.48;;;32.30;24.39
50484;BME280;36409;52.168;20.878;2023-07-08T12:15:04;100922.23;;;31.88;24.66
50484;BME280;36409;52.168;20.878;2023-07-08T12:17:35;100924.31;;;31.57;24.76
50484;BME280;36409;52.168;20.878;2023-07-08T12:20:17;100922.78;;;31.35;24.90
50484;BME280;36409;52.168;20.878;2023-07-08T12:22:47;100916.12;;;31.39;25.06
50484;BME280;36409;52.168;20.878;2023-07-08T12:25:19;100907.22;;;31.76;25.07
50484;BME280;36409;52.168;20.878;2023-07-08T12:27:48;100908.47;;;32.19;25.26
50484;BME280;36409;52.168;20.878;2023-07-08T12:30:17;100900.65;;;32.44;24.98
50484;BME280;36409;52.168;20.878;2023-07-08T12:32:46;100904.34;;;32.25;24.93
50484;BME280;36409;52.168;20.878;2023-07-08T12:35:22;100898.78;;;32.27;24.94
50484;BME280;36409;52.168;20.878;2023-07-08T12:37:52;100904.36;;;32.15;25.02
50484;BME280;36409;52.168;20.878;2023-07-08T12:40:22;100897.95;;;32.44;25.00
50484;BME280;36409;52.168;20.878;2023-07-08T12:42:52;100897.70;;;32.84;24.99
50484;BME280;36409;52.168;20.878;2023-07-08T12:45:23;100896.16;;;32.81;24.58
50484;BME280;36409;52.168;20.878;2023-07-08T12:47:53;100892.89;;;32.59;24.71
50484;BME280;36409;52.168;20.878;2023-07-08T12:50:24;100891.41;;;32.47;24.59
50484;BME280;36409;52.168;20.878;2023-07-08T12:52:53;100884.53;;;32.34;24.54
50484;BME280;36409;52.168;20.878;2023-07-08T12:55:23;100876.21;;;32.46;25.00
50484;BME280;36409;52.168;20.878;2023-07-08T12:57:53;100890.11;;;32.23;24.71
50484;BME280;36409;52.168;20.878;2023-07-08T13:00:26;100882.46;;;31.91;24.67
50484;BME280;36409;52.168;20.878;2023-07-08T13:03:00;100885.25;;;31.99;24.69
50484;BME280;36409;52.168;20.878;2023-07-08T13:05:35;100879.27;;;32.33;24.73
50484;BME280;36409;52.168;20.878;2023-07-08T13:08:08;100874.58;;;32.53;24.71
50484;BME280;36409;52.168;20.878;2023-07-08T13:10:40;100886.09;;;32.73;24.62
50484;BME280;36409;52.168;20.878;2023-07-08T13:13:14;100879.95;;;32.81;24.76